createdAt,value
2022-09-23T00:01:15.793Z,3.97
2022-09-23T00:03:47.710Z,3.20
2022-09-23T00:06:17.421Z,3.33
2022-09-23T00:08:44.591Z,3.28
2022-09-23T00:11:17.360Z,3.13
2022-09-23T00:13:46.770Z,2.30
2022-09-23T00:16:16.890Z,2.47
2022-09-23T00:18:44.390Z,2.53
2022-09-23T00:21:14.867Z,2.10
2022-09-23T00:23:42.997Z,2.50
2022-09-23T00:26:13.151Z,2.35
2022-09-23T00:28:40.670Z,2.67
2022-09-23T00:31:20.108Z,2.08
2022-09-23T00:33:47.381Z,2.05
2022-09-23T00:36:15.993Z,2.40
2022-09-23T00:38:44.220Z,2.50
2022-09-23T00:41:11.953Z,2.28
2022-09-23T00:43:41.605Z,2.17
2022-09-23T00:46:11.753Z,2.63
2022-09-23T00:48:41.259Z,2.97
2022-09-23T00:51:10.622Z,3.55
2022-09-23T00:53:38.851Z,2.80
2022-09-23T00:56:10.031Z,2.78
2022-09-23T00:58:41.133Z,2.97
2022-09-23T01:01:08.297Z,3.28
2022-09-23T01:03:35.253Z,3.72
2022-09-23T01:06:02.016Z,3.30
2022-09-23T01:08:29.193Z,3.75
2022-09-23T01:11:26.719Z,2.88
2022-09-23T01:14:32.179Z,3.28
2022-09-23T01:17:09.411Z,2.60
2022-09-23T01:19:36.508Z,3.20
2022-09-23T01:22:22.039Z,3.03
2022-09-23T01:25:10.377Z,2.78
2022-09-23T01:28:04.575Z,2.97
2022-09-23T01:30:34.209Z,3.10
2022-09-23T01:33:13.375Z,3.08
2022-09-23T01:36:00.829Z,2.55
2022-09-23T01:38:40.254Z,2.35
2022-09-23T01:41:31.508Z,2.60
2022-09-23T01:44:11.490Z,2.40
2022-09-23T01:47:04.385Z,2.35
2022-09-23T01:49:40.242Z,5.70
2022-09-23T01:52:18.456Z,4.40
2022-09-23T01:55:16.709Z,4.40
2022-09-23T01:57:48.944Z,4.10
2022-09-23T02:00:18.401Z,2.30
2022-09-23T02:03:12.737Z,2.60
2022-09-23T02:05:54.139Z,2.30
2022-09-23T02:09:16.430Z,2.75
2022-09-23T02:11:48.913Z,2.20
2022-09-23T02:14:24.999Z,2.50
2022-09-23T02:16:56.123Z,2.63
2022-09-23T02:19:41.995Z,2.63
2022-09-23T02:22:15.363Z,2.17
2022-09-23T02:24:42.132Z,2.55
2022-09-23T02:27:24.155Z,2.45
2022-09-23T02:30:19.046Z,2.63
2022-09-23T02:33:05.360Z,2.20
2022-09-23T02:35:43.035Z,2.65
2022-09-23T02:38:24.385Z,2.85
2022-09-23T02:41:07.632Z,2.33
2022-09-23T02:43:40.120Z,2.38
2022-09-23T02:46:07.605Z,2.20
2022-09-23T02:48:41.369Z,2.58
2022-09-23T02:51:08.637Z,2.58
2022-09-23T02:53:35.538Z,2.28
2022-09-23T02:56:13.604Z,2.50
2022-09-23T02:58:40.427Z,2.50
2022-09-23T03:01:31.568Z,2.58
2022-09-23T03:04:23.321Z,2.63
2022-09-23T03:07:13.205Z,2.30
2022-09-23T03:09:57.920Z,5.15
2022-09-23T03:12:39.874Z,3.00
2022-09-23T03:15:15.463Z,2.90
2022-09-23T03:18:00.537Z,2.90
2022-09-23T03:20:40.821Z,3.05
2022-09-23T03:23:10.671Z,3.60
2022-09-23T03:25:41.303Z,4.13
2022-09-23T03:28:09.223Z,3.13
2022-09-23T03:30:37.090Z,3.35
2022-09-23T03:33:08.264Z,4.47
2022-09-23T03:35:59.605Z,3.58
2022-09-23T03:38:32.994Z,3.50
2022-09-23T03:41:03.002Z,3.75
2022-09-23T03:43:31.237Z,8.88
2022-09-23T03:45:59.521Z,12.82
2022-09-23T03:48:26.246Z,16.67
2022-09-23T03:50:53.182Z,13.18
2022-09-23T03:53:21.099Z,9.43
2022-09-23T03:55:48.434Z,7.32
2022-09-23T03:58:16.094Z,5.43
2022-09-23T04:00:43.645Z,5.25
2022-09-23T04:03:11.839Z,6.18
2022-09-23T04:05:39.310Z,6.60
2022-09-23T04:08:06.436Z,5.90
2022-09-23T04:10:33.214Z,6.32
2022-09-23T04:12:59.955Z,5.15
2022-09-23T04:15:26.737Z,5.43
2022-09-23T04:17:53.452Z,5.70
2022-09-23T04:20:20.707Z,6.55
2022-09-23T04:22:47.431Z,5.47
2022-09-23T04:25:14.298Z,6.68
2022-09-23T04:27:41.026Z,6.40
2022-09-23T04:30:08.448Z,6.15
2022-09-23T04:32:35.185Z,7.68
2022-09-23T04:35:02.091Z,10.90
2022-09-23T04:37:29.607Z,11.57
2022-09-23T04:39:56.688Z,11.35
2022-09-23T04:42:23.458Z,10.38
2022-09-23T04:44:50.259Z,8.85
2022-09-23T04:47:19.302Z,10.20
2022-09-23T04:49:46.127Z,17.02
2022-09-23T04:52:12.782Z,15.48
2022-09-23T04:54:41.752Z,9.07
2022-09-23T04:57:11.214Z,8.45
2022-09-23T04:59:37.886Z,7.55
2022-09-23T05:02:04.841Z,7.63
2022-09-23T05:04:32.483Z,8.30
2022-09-23T05:07:02.300Z,8.65
2022-09-23T05:09:30.143Z,10.07
2022-09-23T05:11:56.867Z,8.75
2022-09-23T05:14:23.586Z,9.10
2022-09-23T05:16:50.408Z,10.00
2022-09-23T05:19:17.076Z,10.32
2022-09-23T05:21:43.730Z,9.50
2022-09-23T05:24:12.515Z,8.35
2022-09-23T05:26:40.063Z,7.65
2022-09-23T05:29:06.857Z,7.32
2022-09-23T05:31:33.703Z,7.00
2022-09-23T05:34:05.197Z,7.40
2022-09-23T05:36:38.234Z,7.50
2022-09-23T05:39:06.409Z,7.72
2022-09-23T05:41:34.051Z,8.10
2022-09-23T05:44:01.034Z,8.52
2022-09-23T05:46:29.772Z,9.35
2022-09-23T05:49:02.137Z,8.77
2022-09-23T05:51:31.298Z,11.23
2022-09-23T05:53:59.000Z,12.68
2022-09-23T05:56:27.794Z,10.30
2022-09-23T05:58:56.484Z,11.43
2022-09-23T06:01:26.594Z,10.63
2022-09-23T06:03:55.137Z,10.15
2022-09-23T06:06:29.293Z,7.38
2022-09-23T06:08:56.703Z,5.95
2022-09-23T06:11:23.387Z,6.97
2022-09-23T06:13:55.195Z,5.95
2022-09-23T06:16:22.165Z,5.03
2022-09-23T06:18:48.963Z,5.65
2022-09-23T06:21:17.234Z,5.88
2022-09-23T06:23:45.457Z,6.13
2022-09-23T06:26:14.778Z,5.82
2022-09-23T06:28:44.151Z,4.88
2022-09-23T06:31:14.048Z,5.18
2022-09-23T06:33:43.124Z,5.13
2022-09-23T06:36:11.420Z,5.70
2022-09-23T06:38:44.673Z,7.15
2022-09-23T06:41:12.736Z,6.28
2022-09-23T06:43:39.955Z,5.45
2022-09-23T06:46:08.785Z,4.53
2022-09-23T06:48:36.122Z,4.55
2022-09-23T06:51:07.355Z,4.95
2022-09-23T06:53:34.984Z,4.75
2022-09-23T06:56:05.720Z,4.70
2022-09-23T06:58:36.727Z,5.03
2022-09-23T07:01:17.684Z,4.80
2022-09-23T07:03:46.272Z,4.97
2022-09-23T07:06:13.327Z,3.55
2022-09-23T07:08:44.415Z,3.92
2022-09-23T07:11:13.496Z,3.55
2022-09-23T07:13:42.341Z,3.90
2022-09-23T07:16:10.971Z,3.63
2022-09-23T07:18:38.295Z,3.10
2022-09-23T07:21:23.984Z,2.30
2022-09-23T07:23:51.984Z,3.30
2022-09-23T07:26:19.930Z,2.85
2022-09-23T07:28:47.258Z,2.72
2022-09-23T07:31:25.223Z,2.08
2022-09-23T07:34:01.342Z,2.15
2022-09-23T07:36:31.454Z,2.83
2022-09-23T07:39:01.827Z,3.00
2022-09-23T07:41:30.359Z,4.90
2022-09-23T07:44:00.612Z,2.40
2022-09-23T07:46:30.305Z,2.55
2022-09-23T07:48:57.775Z,3.50
2022-09-23T07:51:36.267Z,1.70
2022-09-23T07:54:10.089Z,1.90
2022-09-23T07:56:38.198Z,1.50
2022-09-23T07:59:08.779Z,2.30
2022-09-23T08:01:38.709Z,1.83
2022-09-23T08:04:14.588Z,2.55
2022-09-23T08:06:43.321Z,2.20
2022-09-23T08:09:10.894Z,2.47
2022-09-23T08:11:42.124Z,2.90
2022-09-23T08:14:11.037Z,2.92
2022-09-23T08:16:37.766Z,2.78
2022-09-23T08:21:32.726Z,2.10
2022-09-23T08:23:59.594Z,2.80
2022-09-23T08:26:27.157Z,3.67
2022-09-23T08:28:54.685Z,4.15
2022-09-23T08:31:23.040Z,3.30
2022-09-23T08:33:57.740Z,2.38
2022-09-23T08:36:25.625Z,2.28
2022-09-23T08:38:52.699Z,2.00
2022-09-23T08:41:19.300Z,1.30
2022-09-23T08:43:54.116Z,1.50
2022-09-23T08:46:49.235Z,1.30
2022-09-23T08:49:33.523Z,1.55
2022-09-23T08:52:08.290Z,1.15
2022-09-23T08:54:35.019Z,1.30
2022-09-23T08:57:05.312Z,1.30
2022-09-23T08:59:42.193Z,1.50
2022-09-23T09:02:27.935Z,1.20
2022-09-23T09:05:00.171Z,1.50
2022-09-23T09:07:37.389Z,1.20
2022-09-23T09:10:23.631Z,1.48
2022-09-23T09:13:01.023Z,1.00
2022-09-23T09:15:28.833Z,0.77
2022-09-23T09:18:07.902Z,1.08
2022-09-23T09:20:43.858Z,1.73
2022-09-23T09:23:29.834Z,1.02
2022-09-23T09:26:01.557Z,1.20
2022-09-23T09:28:40.781Z,0.98
2022-09-23T09:31:38.508Z,1.13
2022-09-23T09:34:13.303Z,1.42
2022-09-23T09:36:48.786Z,1.45
2022-09-23T09:39:16.357Z,1.20
2022-09-23T09:41:48.757Z,1.30
2022-09-23T09:44:40.808Z,0.93
2022-09-23T09:47:28.458Z,1.05
2022-09-23T09:50:07.644Z,1.48
2022-09-23T09:52:38.888Z,1.20
2022-09-23T09:55:14.824Z,13.07
2022-09-23T09:57:49.815Z,1.60
2022-09-23T10:02:53.818Z,1.40
2022-09-23T10:05:28.431Z,1.83
2022-09-23T10:07:55.239Z,1.50
2022-09-23T10:10:32.870Z,3.05
2022-09-23T10:13:15.294Z,2.65
2022-09-23T10:15:45.232Z,3.00
2022-09-23T10:18:30.548Z,3.50
2022-09-23T10:21:15.276Z,3.15
2022-09-23T10:23:44.951Z,4.45
2022-09-23T10:26:13.192Z,4.63
2022-09-23T10:28:59.716Z,4.90
2022-09-23T10:31:27.735Z,4.03
2022-09-23T10:34:00.490Z,2.25
2022-09-23T10:36:29.478Z,3.00
2022-09-23T10:39:21.934Z,1.98
2022-09-23T10:42:37.713Z,2.70
2022-09-23T10:45:38.589Z,1.65
2022-09-23T10:48:36.142Z,1.67
2022-09-23T10:51:31.952Z,2.10
2022-09-23T10:56:43.039Z,2.22
2022-09-23T10:59:27.988Z,2.20
2022-09-23T11:02:22.047Z,1.80
2022-09-23T11:05:03.994Z,1.90
2022-09-23T11:07:37.376Z,2.33
2022-09-23T11:10:45.465Z,1.90
2022-09-23T11:13:28.691Z,1.67
2022-09-23T11:16:16.888Z,2.75
2022-09-23T11:19:01.020Z,2.00
2022-09-23T11:21:33.808Z,2.38
2022-09-23T11:24:18.438Z,2.75
2022-09-23T11:26:45.207Z,2.08
2022-09-23T11:29:23.982Z,1.80
2022-09-23T11:32:15.410Z,2.00
2022-09-23T11:35:13.241Z,2.30
2022-09-23T11:37:52.296Z,3.15
2022-09-23T11:40:31.150Z,2.03
2022-09-23T11:43:10.316Z,2.10
2022-09-23T11:45:45.022Z,3.10
2022-09-23T11:48:30.799Z,2.17
2022-09-23T11:51:07.204Z,2.00
2022-09-23T11:53:46.513Z,2.17
2022-09-23T11:56:35.397Z,2.13
2022-09-23T11:59:03.528Z,1.77
2022-09-23T12:01:48.092Z,1.77
2022-09-23T12:04:28.853Z,1.60
2022-09-23T12:07:24.874Z,1.80
2022-09-23T12:12:56.175Z,1.20
2022-09-23T12:15:34.436Z,2.07
2022-09-23T12:18:13.035Z,2.33
2022-09-23T12:20:58.077Z,1.63
2022-09-23T12:23:24.868Z,2.47
2022-09-23T12:26:09.765Z,2.40
2022-09-23T12:28:45.180Z,2.08
2022-09-23T12:31:16.304Z,1.10
2022-09-23T12:34:04.599Z,1.65
2022-09-23T12:36:35.466Z,1.88
2022-09-23T12:39:04.636Z,1.50
2022-09-23T12:41:41.630Z,1.50
2022-09-23T12:44:12.641Z,1.70
2022-09-23T12:46:41.435Z,1.25
2022-09-23T12:49:30.079Z,1.30
2022-09-23T12:52:12.210Z,1.58
2022-09-23T12:54:40.824Z,1.50
2022-09-23T12:57:13.147Z,1.35
2022-09-23T12:59:52.605Z,2.05
2022-09-23T13:02:28.638Z,1.50
2022-09-23T13:05:38.011Z,2.50
2022-09-23T13:08:37.834Z,2.13
2022-09-23T13:11:08.636Z,1.88
2022-09-23T13:13:42.240Z,2.60
2022-09-23T13:16:32.556Z,2.40
2022-09-23T13:19:00.967Z,2.33
2022-09-23T13:21:42.958Z,2.33
2022-09-23T13:24:31.358Z,2.65
2022-09-23T13:27:07.081Z,2.20
2022-09-23T13:29:55.963Z,4.32
2022-09-23T13:32:29.012Z,1.90
2022-09-23T13:35:06.128Z,10.48
2022-09-23T13:37:43.305Z,6.13
2022-09-23T13:40:27.507Z,3.42
2022-09-23T13:43:06.403Z,3.70
2022-09-23T13:45:38.438Z,4.38
2022-09-23T13:48:13.620Z,2.65
2022-09-23T13:50:45.350Z,3.45
2022-09-23T13:53:17.874Z,3.83
2022-09-23T13:55:47.921Z,3.30
2022-09-23T13:58:24.113Z,2.65
2022-09-23T14:00:52.010Z,3.92
2022-09-23T14:03:37.038Z,4.72
2022-09-23T14:06:14.521Z,10.50
2022-09-23T14:08:46.048Z,3.35
2022-09-23T14:11:22.492Z,29.25
2022-09-23T14:13:54.996Z,2.20
2022-09-23T14:16:26.841Z,2.15
2022-09-23T14:19:00.355Z,2.95
2022-09-23T14:21:37.004Z,3.53
2022-09-23T14:24:17.470Z,2.80
2022-09-23T14:26:49.268Z,2.78
2022-09-23T14:29:46.580Z,2.80
2022-09-23T14:32:22.839Z,2.60
2022-09-23T14:34:50.805Z,2.60
2022-09-23T14:37:51.559Z,2.72
2022-09-23T14:40:21.158Z,3.35
2022-09-23T14:43:15.911Z,4.97
2022-09-23T14:45:47.443Z,5.22
2022-09-23T14:48:22.678Z,5.80
2022-09-23T14:50:52.618Z,4.40
2022-09-23T14:53:19.593Z,9.18
2022-09-23T14:55:52.934Z,7.93
2022-09-23T14:58:23.167Z,4.85
2022-09-23T15:00:57.090Z,2.88
2022-09-23T15:03:24.125Z,4.47
2022-09-23T15:05:57.942Z,3.97
2022-09-23T15:08:27.672Z,4.07
2022-09-23T15:10:55.079Z,3.55
2022-09-23T15:13:27.417Z,3.85
2022-09-23T15:15:55.001Z,5.47
2022-09-23T15:18:42.957Z,7.00
2022-09-23T15:21:19.406Z,5.90
2022-09-23T15:23:57.527Z,6.13
2022-09-23T15:26:26.803Z,6.47
2022-09-23T15:28:58.512Z,7.13
2022-09-23T15:31:26.670Z,5.85
2022-09-23T15:33:53.453Z,4.35
2022-09-23T15:36:28.658Z,5.95
2022-09-23T15:38:57.288Z,13.20
2022-09-23T15:41:24.501Z,11.18
2022-09-23T15:43:51.579Z,12.57
2022-09-23T15:46:28.252Z,6.57
2022-09-23T15:49:03.286Z,7.00
2022-09-23T15:51:30.642Z,7.75
2022-09-23T15:53:57.809Z,9.38
2022-09-23T15:56:25.039Z,10.73
2022-09-23T15:58:51.806Z,17.05
2022-09-23T16:01:24.588Z,15.63
2022-09-23T16:03:51.342Z,16.00
2022-09-23T16:06:20.424Z,18.70
2022-09-23T16:08:48.004Z,16.23
2022-09-23T16:11:31.924Z,11.85
2022-09-23T16:14:00.785Z,23.00
2022-09-23T16:16:28.063Z,26.52
2022-09-23T16:18:55.825Z,30.35
2022-09-23T16:21:26.204Z,29.08
2022-09-23T16:23:54.515Z,23.35
2022-09-23T16:26:27.708Z,43.00
2022-09-23T16:28:56.379Z,16.52
2022-09-23T16:31:25.660Z,30.52
2022-09-23T16:33:53.729Z,30.60
2022-09-23T16:36:27.146Z,10.75
2022-09-23T16:38:57.928Z,9.13
2022-09-23T16:41:26.407Z,7.88
2022-09-23T16:43:53.730Z,11.30
2022-09-23T16:46:21.533Z,5.20
2022-09-23T16:48:52.571Z,10.73
2022-09-23T16:51:22.446Z,6.25
2022-09-23T16:53:50.665Z,8.45
2022-09-23T16:56:24.359Z,9.55
2022-09-23T16:58:55.105Z,5.97
2022-09-23T17:01:46.070Z,7.22
2022-09-23T17:04:14.802Z,10.15
2022-09-23T17:06:50.277Z,8.10
2022-09-23T17:09:23.462Z,9.38
2022-09-23T17:12:09.433Z,16.70
2022-09-23T17:14:36.807Z,8.50
2022-09-23T17:17:03.494Z,8.30
2022-09-23T17:19:30.293Z,10.10
2022-09-23T17:21:56.986Z,9.65
2022-09-23T17:24:23.796Z,10.52
2022-09-23T17:26:53.301Z,9.75
2022-09-23T17:29:20.309Z,9.23
2022-09-23T17:31:47.219Z,11.45
2022-09-23T17:34:14.138Z,10.35
2022-09-23T17:36:40.882Z,9.13
2022-09-23T17:39:07.745Z,10.80
2022-09-23T17:41:34.463Z,11.90
2022-09-23T17:44:01.437Z,13.60
2022-09-23T17:46:30.234Z,11.00
2022-09-23T17:48:57.836Z,9.05
2022-09-23T17:51:25.561Z,12.80
2022-09-23T17:53:52.669Z,14.73
2022-09-23T17:56:27.121Z,8.70
2022-09-23T17:58:54.150Z,8.20
2022-09-23T18:01:23.169Z,7.13
2022-09-23T18:04:01.442Z,7.38
2022-09-23T18:06:31.956Z,8.48
2022-09-23T18:09:06.899Z,10.82
2022-09-23T18:14:06.680Z,19.27
2022-09-23T18:16:40.521Z,16.98
2022-09-23T18:19:11.741Z,18.10
2022-09-23T18:21:41.180Z,17.90
2022-09-23T18:24:34.779Z,11.55
2022-09-23T18:27:02.480Z,8.10
2022-09-23T18:29:29.666Z,7.60
2022-09-23T18:31:56.713Z,8.02
2022-09-23T18:34:23.682Z,8.50
2022-09-23T18:36:50.816Z,9.75
2022-09-23T18:39:17.648Z,9.80
2022-09-23T18:41:44.321Z,8.32
2022-09-23T18:44:11.636Z,8.13
2022-09-23T18:46:38.575Z,7.55
2022-09-23T18:49:24.459Z,6.68
2022-09-23T18:54:22.152Z,6.88
2022-09-23T18:56:50.069Z,8.65
2022-09-23T18:59:19.781Z,7.72
2022-09-23T19:01:48.800Z,7.43
2022-09-23T19:04:18.420Z,7.57
2022-09-23T19:06:46.030Z,11.27
2022-09-23T19:09:14.292Z,10.60
2022-09-23T19:11:41.220Z,10.57
2022-09-23T19:14:11.453Z,6.53
2022-09-23T19:16:40.254Z,10.95
2022-09-23T19:19:07.891Z,13.27
2022-09-23T19:21:35.187Z,12.35
2022-09-23T19:24:06.473Z,12.90
2022-09-23T19:26:39.588Z,13.98
2022-09-23T19:29:09.259Z,13.95
2022-09-23T19:31:40.737Z,14.43
2022-09-23T19:34:16.715Z,14.35
2022-09-23T19:36:45.834Z,14.63
2022-09-23T19:39:19.131Z,15.25
2022-09-23T19:41:46.984Z,15.68
2022-09-23T19:44:14.363Z,16.10
2022-09-23T19:46:44.602Z,15.68
2022-09-23T19:49:12.188Z,16.52
2022-09-23T19:51:39.359Z,17.25
2022-09-23T19:54:07.557Z,17.33
2022-09-23T19:56:34.925Z,19.75
2022-09-23T19:59:03.133Z,18.05
2022-09-23T20:01:32.042Z,16.70
2022-09-23T20:03:59.446Z,17.80
2022-09-23T20:06:30.372Z,15.52
2022-09-23T20:08:59.641Z,15.27
2022-09-23T20:11:28.665Z,15.45
2022-09-23T20:14:02.298Z,16.10
2022-09-23T20:16:32.520Z,15.23
2022-09-23T20:19:01.068Z,93.28
2022-09-23T20:21:29.427Z,14.45
2022-09-23T20:23:57.928Z,12.65
2022-09-23T20:26:43.792Z,11.63
2022-09-23T20:29:11.110Z,12.80
2022-09-23T20:31:40.655Z,11.73
2022-09-23T20:34:08.415Z,11.63
2022-09-23T20:36:36.208Z,11.23
2022-09-23T20:39:09.651Z,11.85
2022-09-23T20:41:37.959Z,12.20
2022-09-23T20:44:12.540Z,13.63
2022-09-23T20:46:48.262Z,11.82
2022-09-23T20:49:17.358Z,9.77
2022-09-23T20:51:44.345Z,15.77
2022-09-23T20:54:12.173Z,16.00
2022-09-23T20:56:39.222Z,12.93
2022-09-23T20:59:05.892Z,10.00
2022-09-23T21:01:35.363Z,10.40
2022-09-23T21:04:04.902Z,7.68
2022-09-23T21:06:33.593Z,7.38
2022-09-23T21:09:00.929Z,7.53
2022-09-23T21:11:29.188Z,7.55
2022-09-23T21:13:56.674Z,7.15
2022-09-23T21:16:24.165Z,7.55
2022-09-23T21:18:51.918Z,7.38
2022-09-23T21:21:20.034Z,8.80
2022-09-23T21:23:47.729Z,10.23
2022-09-23T21:26:19.883Z,14.73
2022-09-23T21:28:48.785Z,14.00
2022-09-23T21:31:28.422Z,9.82
2022-09-23T21:33:56.951Z,9.63
2022-09-23T21:36:24.915Z,7.65
2022-09-23T21:38:52.576Z,6.78
2022-09-23T21:41:19.930Z,9.90
2022-09-23T21:43:47.568Z,12.73
2022-09-23T21:46:17.412Z,14.65
2022-09-23T21:48:44.284Z,13.25
2022-09-23T21:51:16.497Z,13.45
2022-09-23T21:53:44.916Z,11.88
2022-09-23T21:56:19.666Z,11.13
2022-09-23T21:58:47.529Z,10.77
2022-09-23T22:01:35.673Z,11.82
2022-09-23T22:04:10.287Z,8.35
2022-09-23T22:06:38.691Z,7.47
2022-09-23T22:09:10.921Z,5.68
2022-09-23T22:11:57.946Z,6.47
2022-09-23T22:14:26.060Z,6.00
2022-09-23T22:16:59.962Z,6.22
2022-09-23T22:19:35.854Z,5.85
2022-09-23T22:22:07.784Z,6.30
2022-09-23T22:24:34.559Z,7.07
2022-09-23T22:27:01.363Z,7.82
2022-09-23T22:29:46.514Z,6.60
2022-09-23T22:32:32.016Z,6.57
2022-09-23T22:34:58.693Z,5.80
2022-09-23T22:37:32.898Z,6.95
2022-09-23T22:40:00.564Z,5.15
2022-09-23T22:42:28.037Z,5.45
2022-09-23T22:44:56.177Z,5.93
2022-09-23T22:47:23.640Z,6.72
2022-09-23T22:49:55.620Z,7.50
2022-09-23T22:52:24.659Z,6.72
2022-09-23T22:54:52.252Z,5.57
2022-09-23T22:57:19.679Z,7.18
2022-09-23T22:59:48.430Z,7.47
2022-09-23T23:02:18.151Z,6.22
2022-09-23T23:04:47.081Z,5.95
2022-09-23T23:07:15.010Z,6.68
2022-09-23T23:09:41.937Z,6.30
2022-09-23T23:12:08.651Z,6.25
2022-09-23T23:14:36.433Z,6.40
2022-09-23T23:17:07.310Z,6.75
2022-09-23T23:19:35.413Z,5.97
2022-09-23T23:22:02.257Z,6.60
2022-09-23T23:24:29.128Z,8.10
2022-09-23T23:26:55.851Z,6.85
2022-09-23T23:29:23.525Z,5.88
2022-09-23T23:31:51.200Z,5.70
2022-09-23T23:34:20.583Z,5.90
2022-09-23T23:36:55.293Z,6.28
2022-09-23T23:41:59.432Z,5.22
2022-09-23T23:44:27.177Z,4.60
2022-09-23T23:46:54.948Z,5.60
2022-09-23T23:49:22.057Z,5.22
2022-09-23T23:51:48.864Z,5.60
2022-09-23T23:54:15.694Z,4.90
2022-09-23T23:56:43.210Z,5.43
2022-09-23T23:59:09.870Z,4.75
